Time;durP1;ratioP1;P1;durP2;ratioP2;P2;SDS_P1;SDS_P2;PMS_P1;PMS_P2;Temp;Humidity;BMP_temperature;BMP_pressure;BME280_temperature;BME280_humidity;BME280_pressure;Samples;Min_cycle;Max_cycle;Signal;HPM_P1;HPM_P2
2021/08/30 00:01:43;;;;;;;35.60;32.20;;;;;;;;;;5041220;28;20411;-88
2021/08/30 00:04:11;;;;;;;37.27;33.60;;;;;;;;;;5023310;28;20463;-88
2021/08/30 00:06:54;;;;;;;36.70;33.27;;;;;;;;;;5046523;28;20455;-88
2021/08/30 00:09:21;;;;;;;35.33;32.07;;;;;;;;;;5045282;28;20465;-88
2021/08/30 00:11:50;;;;;;;38.20;34.30;;;;;;;;;;5045861;28;20823;-88
2021/08/30 00:14:18;;;;;;;38.10;34.60;;;;;;;;;;5049246;28;20406;-88
2021/08/30 00:16:45;;;;;;;36.40;32.97;;;;;;;;;;5046622;28;20462;-89
2021/08/30 00:19:20;;;;;;;35.90;32.63;;;;;;;;;;5047726;28;20450;-87
2021/08/30 00:21:48;;;;;;;33.20;30.00;;;;;;;;;;5026580;28;20442;-88
2021/08/30 00:24:22;;;;;;;36.50;33.17;;;;;;;;;;5045151;28;20496;-88
2021/08/30 00:29:39;;;;;;;36.47;33.40;;;;;;;;;;5046654;28;20407;-89
2021/08/30 00:32:07;;;;;;;36.20;32.60;;;;;;;;;;5047385;28;20427;-89
2021/08/30 00:34:36;;;;;;;35.63;32.40;;;;;;;;;;5067152;28;20467;-89
2021/08/30 00:37:04;;;;;;;36.27;33.23;;;;;;;;;;5046235;28;20482;-89
2021/08/30 00:39:32;;;;;;;37.07;33.60;;;;;;;;;;5044892;28;20421;-89
2021/08/30 00:42:07;;;;;;;35.60;32.27;;;;;;;;;;5045701;28;20429;-86
2021/08/30 00:44:45;;;;;;;36.00;32.90;;;;;;;;;;5063258;28;20401;-88
2021/08/30 00:47:15;;;;;;;35.17;32.17;;;;;;;;;;5064333;28;20443;-88
2021/08/30 00:49:49;;;;;;;36.00;32.87;;;;;;;;;;5065418;28;20391;-88
2021/08/30 00:52:17;;;;;;;37.57;34.23;;;;;;;;;;5062904;28;20442;-88
2021/08/30 00:54:45;;;;;;;38.23;34.80;;;;;;;;;;5063560;28;20914;-88
2021/08/30 00:57:17;;;;;;;37.67;34.03;;;;;;;;;;5065129;28;20470;-88
2021/08/30 00:59:49;;;;;;;36.80;33.70;;;;;;;;;;5063762;28;20450;-88
2021/08/30 01:02:26;;;;;;;37.60;33.87;;;;;;;;;;5064196;28;20525;-88
2021/08/30 01:04:54;;;;;;;34.40;31.10;;;;;;;;;;5065852;28;20462;-88
2021/08/30 01:07:24;;;;;;;35.53;32.30;;;;;;;;;;5069730;28;20462;-88
2021/08/30 01:09:57;;;;;;;36.80;33.60;;;;;;;;;;5070530;28;20483;-89
2021/08/30 01:12:30;;;;;;;36.97;33.50;;;;;;;;;;5066517;28;20450;-88
2021/08/30 01:15:05;;;;;;;35.00;32.30;;;;;;;;;;5062653;28;20447;-88
2021/08/30 01:17:36;;;;;;;37.73;34.43;;;;;;;;;;5060287;28;20481;-88
2021/08/30 01:20:07;;;;;;;37.20;34.03;;;;;;;;;;5058648;28;20441;-88
2021/08/30 01:22:36;;;;;;;36.17;32.63;;;;;;;;;;5061712;28;20439;-88
2021/08/30 01:25:06;;;;;;;38.50;34.93;;;;;;;;;;5058875;28;20487;-89
2021/08/30 01:27:39;;;;;;;38.00;34.17;;;;;;;;;;5059835;28;20872;-86
2021/08/30 01:30:11;;;;;;;39.03;35.37;;;;;;;;;;5039498;28;20450;-88
2021/08/30 01:32:42;;;;;;;38.20;34.60;;;;;;;;;;5061185;28;20506;-88
2021/08/30 01:35:10;;;;;;;37.90;34.67;;;;;;;;;;5024154;28;20470;-88
2021/08/30 01:37:40;;;;;;;38.80;35.53;;;;;;;;;;5041620;28;20487;-88
2021/08/30 01:40:12;;;;;;;38.73;34.87;;;;;;;;;;5040233;28;20448;-88
2021/08/30 01:42:43;;;;;;;38.70;35.00;;;;;;;;;;5039794;28;20892;-89
2021/08/30 01:45:13;;;;;;;39.33;35.77;;;;;;;;;;5040094;28;20447;-87
2021/08/30 01:47:45;;;;;;;38.17;34.87;;;;;;;;;;5021965;28;20426;-88
2021/08/30 01:50:22;;;;;;;41.10;37.23;;;;;;;;;;5039383;28;20442;-88
2021/08/30 01:52:51;;;;;;;40.37;36.80;;;;;;;;;;5042989;28;20414;-88
2021/08/30 01:55:25;;;;;;;39.63;35.97;;;;;;;;;;5043060;28;20543;-88
2021/08/30 02:00:45;;;;;;;39.90;36.43;;;;;;;;;;5042493;28;20434;-89
2021/08/30 02:03:18;;;;;;;41.57;37.73;;;;;;;;;;5043391;28;20439;-88
2021/08/30 02:05:47;;;;;;;41.07;37.40;;;;;;;;;;5044364;28;20438;-88
2021/08/30 02:08:16;;;;;;;42.27;38.23;;;;;;;;;;5041302;28;20438;-88
2021/08/30 02:10:46;;;;;;;41.10;37.43;;;;;;;;;;5035107;28;20442;-88
2021/08/30 02:13:14;;;;;;;43.63;39.53;;;;;;;;;;5043261;28;20421;-88
2021/08/30 02:15:44;;;;;;;40.83;37.23;;;;;;;;;;5042874;28;20458;-88
2021/08/30 02:18:15;;;;;;;42.10;38.40;;;;;;;;;;5043362;28;20947;-88
2021/08/30 02:20:48;;;;;;;41.87;38.10;;;;;;;;;;5042967;28;20406;-88
2021/08/30 02:23:19;;;;;;;40.97;37.20;;;;;;;;;;5041418;28;20434;-88
2021/08/30 02:25:47;;;;;;;41.47;37.63;;;;;;;;;;5044923;28;20434;-89
2021/08/30 02:28:14;;;;;;;42.00;38.03;;;;;;;;;;5044442;28;20448;-88
2021/08/30 02:30:42;;;;;;;41.93;38.47;;;;;;;;;;5049245;28;20422;-88
2021/08/30 02:33:11;;;;;;;42.40;38.60;;;;;;;;;;5055797;28;20441;-88
2021/08/30 02:35:40;;;;;;;42.67;38.57;;;;;;;;;;5035811;28;20422;-88
2021/08/30 02:38:13;;;;;;;41.83;38.07;;;;;;;;;;5050469;28;20454;-89
2021/08/30 02:40:41;;;;;;;41.87;37.33;;;;;;;;;;5040411;28;20411;-88
2021/08/30 02:43:09;;;;;;;42.03;37.80;;;;;;;;;;5040773;28;20444;-88
2021/08/30 02:45:38;;;;;;;42.20;38.40;;;;;;;;;;5039958;28;20399;-88
2021/08/30 02:48:06;;;;;;;42.30;38.47;;;;;;;;;;5039147;28;20408;-88
2021/08/30 02:50:34;;;;;;;42.40;38.60;;;;;;;;;;5041006;28;20611;-88
2021/08/30 02:53:02;;;;;;;42.30;38.43;;;;;;;;;;5039369;28;20791;-88
2021/08/30 02:55:31;;;;;;;41.97;38.27;;;;;;;;;;5043279;28;20433;-88
2021/08/30 02:58:00;;;;;;;41.93;38.33;;;;;;;;;;5041546;28;20490;-88
2021/08/30 03:00:28;;;;;;;43.43;39.10;;;;;;;;;;5040552;28;20446;-88
2021/08/30 03:02:57;;;;;;;40.80;37.40;;;;;;;;;;5040222;28;20464;-88
2021/08/30 03:05:25;;;;;;;40.17;36.70;;;;;;;;;;5040245;28;21099;-88
2021/08/30 03:08:03;;;;;;;41.77;37.83;;;;;;;;;;5040426;28;20444;-88
2021/08/30 03:10:34;;;;;;;42.60;38.83;;;;;;;;;;5040906;28;20424;-88
2021/08/30 03:13:07;;;;;;;42.13;38.53;;;;;;;;;;5043755;28;20402;-89
2021/08/30 03:15:43;;;;;;;42.33;38.83;;;;;;;;;;5043660;28;20414;-88
2021/08/30 03:18:12;;;;;;;42.90;39.10;;;;;;;;;;5039939;28;20465;-87
2021/08/30 03:20:39;;;;;;;41.60;37.57;;;;;;;;;;5040102;28;20421;-88
2021/08/30 03:23:09;;;;;;;42.77;38.87;;;;;;;;;;5023533;28;20439;-89
2021/08/30 03:25:38;;;;;;;42.57;38.57;;;;;;;;;;5040205;28;20792;-88
2021/08/30 03:28:07;;;;;;;42.93;39.03;;;;;;;;;;5039450;28;20428;-88
2021/08/30 03:30:35;;;;;;;42.10;38.20;;;;;;;;;;5047107;28;20438;-88
2021/08/30 03:33:06;;;;;;;43.57;39.60;;;;;;;;;;5047620;28;20839;-88
2021/08/30 03:35:35;;;;;;;41.80;38.07;;;;;;;;;;5041780;28;20502;-88
2021/08/30 03:38:02;;;;;;;41.37;37.67;;;;;;;;;;5036671;28;20541;-88
2021/08/30 03:40:30;;;;;;;43.43;39.27;;;;;;;;;;5035065;28;20432;-87
2021/08/30 03:42:59;;;;;;;42.93;38.93;;;;;;;;;;5035553;28;20471;-88
2021/08/30 03:45:28;;;;;;;44.17;40.23;;;;;;;;;;5035051;28;20444;-88
2021/08/30 03:47:56;;;;;;;44.23;40.13;;;;;;;;;;5035163;28;20938;-88
2021/08/30 03:50:23;;;;;;;44.20;40.23;;;;;;;;;;5034770;28;20905;-88
2021/08/30 03:52:51;;;;;;;43.87;39.50;;;;;;;;;;5035593;28;20437;-88
2021/08/30 03:55:18;;;;;;;43.43;39.67;;;;;;;;;;5034774;28;20403;-88
2021/08/30 03:57:46;;;;;;;43.00;39.20;;;;;;;;;;5035246;28;20465;-88
2021/08/30 04:00:15;;;;;;;43.07;39.20;;;;;;;;;;5034578;28;20452;-88
2021/08/30 04:02:43;;;;;;;44.10;40.07;;;;;;;;;;5034688;28;20452;-88
2021/08/30 04:05:12;;;;;;;43.90;39.50;;;;;;;;;;5035939;28;20502;-88
2021/08/30 04:07:41;;;;;;;47.73;43.20;;;;;;;;;;5034648;28;20448;-88
2021/08/30 04:10:08;;;;;;;43.47;38.97;;;;;;;;;;5038362;28;20409;-88
2021/08/30 04:12:36;;;;;;;44.73;40.80;;;;;;;;;;5034356;28;20770;-89
2021/08/30 04:15:04;;;;;;;44.33;40.33;;;;;;;;;;5034590;28;20406;-88
2021/08/30 04:17:32;;;;;;;43.30;39.40;;;;;;;;;;5036564;28;20553;-88
2021/08/30 04:20:00;;;;;;;43.80;40.00;;;;;;;;;;5034527;28;20407;-88
2021/08/30 04:22:27;;;;;;;43.33;39.23;;;;;;;;;;5016812;28;20476;-88
2021/08/30 04:24:55;;;;;;;42.93;38.77;;;;;;;;;;5038499;28;20518;-88
2021/08/30 04:27:23;;;;;;;44.73;40.53;;;;;;;;;;5017368;28;20788;-88
2021/08/30 04:29:50;;;;;;;42.93;38.93;;;;;;;;;;5035081;28;20531;-88
2021/08/30 04:32:17;;;;;;;45.43;41.23;;;;;;;;;;5016873;28;20447;-88
2021/08/30 04:34:46;;;;;;;44.47;40.57;;;;;;;;;;5034445;28;20444;-88
2021/08/30 04:37:14;;;;;;;45.40;41.30;;;;;;;;;;5035104;28;20467;-88
2021/08/30 04:39:41;;;;;;;44.30;40.50;;;;;;;;;;5026276;28;20437;-88
2021/08/30 04:42:10;;;;;;;45.67;41.40;;;;;;;;;;5035213;28;20466;-88
2021/08/30 04:44:37;;;;;;;45.00;40.97;;;;;;;;;;5034468;28;20419;-87
2021/08/30 04:47:05;;;;;;;49.40;44.90;;;;;;;;;;5034657;28;20455;-88
2021/08/30 04:49:32;;;;;;;47.57;43.10;;;;;;;;;;5034113;28;20927;-88
2021/08/30 04:52:01;;;;;;;47.57;43.00;;;;;;;;;;5034446;28;20780;-88
2021/08/30 04:54:28;;;;;;;48.43;44.20;;;;;;;;;;5038045;28;20439;-87
2021/08/30 04:56:56;;;;;;;47.10;42.70;;;;;;;;;;5034998;28;20451;-87
2021/08/30 04:59:23;;;;;;;46.20;41.80;;;;;;;;;;5035298;28;20439;-87
2021/08/30 05:01:50;;;;;;;46.17;41.63;;;;;;;;;;5034293;28;20458;-87
2021/08/30 05:04:18;;;;;;;45.47;41.27;;;;;;;;;;5036125;28;20479;-88
2021/08/30 05:06:45;;;;;;;48.27;43.40;;;;;;;;;;5034440;28;20413;-87
2021/08/30 05:09:17;;;;;;;47.50;42.70;;;;;;;;;;5036885;28;20428;-86
2021/08/30 05:11:44;;;;;;;45.77;41.27;;;;;;;;;;5037280;28;20431;-87
2021/08/30 05:14:14;;;;;;;49.40;44.93;;;;;;;;;;5036520;28;20414;-87
2021/08/30 05:16:41;;;;;;;47.73;43.23;;;;;;;;;;5034520;28;20480;-87
2021/08/30 05:19:08;;;;;;;48.97;44.20;;;;;;;;;;5036515;28;20483;-87
2021/08/30 05:21:36;;;;;;;52.47;47.33;;;;;;;;;;5018533;28;20455;-87
2021/08/30 05:24:04;;;;;;;45.13;41.13;;;;;;;;;;5035604;28;20425;-87
2021/08/30 05:26:33;;;;;;;49.80;44.60;;;;;;;;;;5037277;28;20439;-88
2021/08/30 05:29:00;;;;;;;48.27;43.67;;;;;;;;;;5023077;28;20550;-87
2021/08/30 05:31:28;;;;;;;48.83;43.70;;;;;;;;;;5037718;28;20890;-87
2021/08/30 05:33:58;;;;;;;48.00;43.33;;;;;;;;;;5051703;28;20457;-86
2021/08/30 05:36:25;;;;;;;46.77;42.40;;;;;;;;;;5057362;28;20556;-84
2021/08/30 05:38:53;;;;;;;48.63;44.13;;;;;;;;;;5056921;28;20450;-84
2021/08/30 05:41:21;;;;;;;47.13;42.83;;;;;;;;;;5056756;28;20463;-84
2021/08/30 05:43:49;;;;;;;47.63;43.33;;;;;;;;;;5056702;28;20442;-84
2021/08/30 05:46:17;;;;;;;45.00;41.00;;;;;;;;;;5056848;28;20432;-84
2021/08/30 05:48:45;;;;;;;46.90;42.70;;;;;;;;;;5056860;28;20901;-84
2021/08/30 05:51:12;;;;;;;47.23;42.87;;;;;;;;;;5039031;28;20418;-84
2021/08/30 05:53:40;;;;;;;45.67;41.60;;;;;;;;;;5056682;28;20799;-84
2021/08/30 05:56:08;;;;;;;46.53;42.00;;;;;;;;;;5056371;28;20442;-84
2021/08/30 05:58:36;;;;;;;46.23;42.07;;;;;;;;;;5056346;28;21120;-84
2021/08/30 06:01:05;;;;;;;46.93;42.53;;;;;;;;;;5056490;28;20422;-86
2021/08/30 06:03:32;;;;;;;47.10;42.90;;;;;;;;;;5056837;28;20402;-87
2021/08/30 06:06:00;;;;;;;45.83;41.70;;;;;;;;;;5056650;28;20482;-84
2021/08/30 06:08:27;;;;;;;46.93;42.73;;;;;;;;;;5056428;28;20806;-84
2021/08/30 06:10:57;;;;;;;46.83;42.43;;;;;;;;;;5056455;28;20444;-84
2021/08/30 06:13:25;;;;;;;49.07;44.67;;;;;;;;;;5038361;28;20781;-80
2021/08/30 06:15:52;;;;;;;47.17;42.57;;;;;;;;;;5047553;28;20448;-79
2021/08/30 06:18:21;;;;;;;49.80;45.20;;;;;;;;;;5035819;28;20485;-82
2021/08/30 06:20:49;;;;;;;46.40;41.93;;;;;;;;;;5036185;28;20453;-84
2021/08/30 06:23:16;;;;;;;44.10;40.07;;;;;;;;;;5036256;28;20440;-83
2021/08/30 06:25:43;;;;;;;45.10;40.90;;;;;;;;;;5035997;28;20451;-82
2021/08/30 06:28:11;;;;;;;44.87;40.97;;;;;;;;;;5036277;28;20449;-81
2021/08/30 06:30:38;;;;;;;43.43;39.93;;;;;;;;;;5036051;28;20418;-82
2021/08/30 06:33:05;;;;;;;43.10;39.40;;;;;;;;;;5035713;28;20486;-86
2021/08/30 06:35:42;;;;;;;42.83;39.43;;;;;;;;;;5036369;28;20773;-84
2021/08/30 06:38:09;;;;;;;42.93;39.40;;;;;;;;;;5035978;28;20842;-85
2021/08/30 06:40:37;;;;;;;43.23;39.23;;;;;;;;;;5036079;28;20799;-85
2021/08/30 06:43:04;;;;;;;41.30;37.93;;;;;;;;;;5035759;28;20913;-85
2021/08/30 06:45:32;;;;;;;40.43;37.27;;;;;;;;;;5036373;28;20456;-85
2021/08/30 06:47:59;;;;;;;42.80;39.30;;;;;;;;;;5036667;28;20451;-85
2021/08/30 06:50:26;;;;;;;41.27;37.70;;;;;;;;;;5036718;28;20448;-85
2021/08/30 06:52:55;;;;;;;42.43;38.83;;;;;;;;;;5018104;28;20426;-85
2021/08/30 06:55:23;;;;;;;40.87;37.13;;;;;;;;;;5018302;28;20457;-85
2021/08/30 06:57:50;;;;;;;38.87;35.73;;;;;;;;;;5035758;28;20475;-85
2021/08/30 07:00:18;;;;;;;41.90;38.50;;;;;;;;;;5035603;28;20443;-84
2021/08/30 07:02:46;;;;;;;39.73;36.40;;;;;;;;;;5035582;28;20446;-84
2021/08/30 07:05:13;;;;;;;42.17;38.30;;;;;;;;;;5017783;28;20523;-85
2021/08/30 07:07:41;;;;;;;40.20;36.80;;;;;;;;;;5035995;28;20447;-84
2021/08/30 07:10:11;;;;;;;40.43;37.30;;;;;;;;;;5037531;28;20410;-85
2021/08/30 07:12:38;;;;;;;38.60;35.37;;;;;;;;;;5036958;28;20403;-86
2021/08/30 07:15:06;;;;;;;38.20;35.00;;;;;;;;;;5035191;28;20440;-88
2021/08/30 07:17:33;;;;;;;38.10;34.80;;;;;;;;;;5015694;28;20424;-86
2021/08/30 07:20:01;;;;;;;37.13;34.13;;;;;;;;;;5015414;28;20431;-87
2021/08/30 07:22:28;;;;;;;38.13;34.90;;;;;;;;;;5015512;28;20431;-86
2021/08/30 07:24:56;;;;;;;38.10;35.20;;;;;;;;;;5015897;28;20413;-87
2021/08/30 07:27:25;;;;;;;38.00;35.00;;;;;;;;;;5015802;28;20416;-86
2021/08/30 07:29:53;;;;;;;37.87;35.07;;;;;;;;;;5015360;28;20439;-86
2021/08/30 07:32:20;;;;;;;37.00;34.30;;;;;;;;;;5016103;28;21004;-83
2021/08/30 07:34:48;;;;;;;36.60;33.57;;;;;;;;;;5034006;28;20419;-80
2021/08/30 07:37:16;;;;;;;38.20;35.33;;;;;;;;;;5035257;28;20425;-83
2021/08/30 07:39:43;;;;;;;35.87;33.17;;;;;;;;;;5035019;28;20491;-83
2021/08/30 07:42:11;;;;;;;36.47;33.87;;;;;;;;;;5034833;28;20441;-80
2021/08/30 07:44:39;;;;;;;37.10;34.10;;;;;;;;;;5035115;28;20420;-85
2021/08/30 07:47:07;;;;;;;35.10;32.60;;;;;;;;;;5034666;28;20421;-85
2021/08/30 07:49:34;;;;;;;35.53;33.00;;;;;;;;;;5035118;28;20403;-87
2021/08/30 07:52:01;;;;;;;35.40;32.83;;;;;;;;;;5036623;28;20454;-86
2021/08/30 07:54:29;;;;;;;35.70;32.90;;;;;;;;;;5035236;28;20948;-86
2021/08/30 07:56:56;;;;;;;39.33;36.27;;;;;;;;;;5034588;28;20471;-81
2021/08/30 07:59:24;;;;;;;37.30;34.60;;;;;;;;;;5034848;28;20483;-85
2021/08/30 08:01:52;;;;;;;37.13;34.37;;;;;;;;;;5034393;28;20432;-84
2021/08/30 08:04:20;;;;;;;37.30;34.40;;;;;;;;;;5033425;28;20480;-84
2021/08/30 08:06:47;;;;;;;36.73;33.77;;;;;;;;;;5035981;28;20443;-84
2021/08/30 08:09:14;;;;;;;37.60;34.80;;;;;;;;;;5034169;28;20442;-83
2021/08/30 08:11:43;;;;;;;38.10;35.33;;;;;;;;;;5034431;28;20436;-85
2021/08/30 08:14:11;;;;;;;37.90;34.77;;;;;;;;;;5032965;28;20475;-81
2021/08/30 08:16:38;;;;;;;36.00;33.40;;;;;;;;;;5034250;28;20424;-82
2021/08/30 08:19:07;;;;;;;39.83;37.03;;;;;;;;;;5034013;28;20567;-85
2021/08/30 08:21:35;;;;;;;37.00;34.20;;;;;;;;;;5034564;28;20773;-84
2021/08/30 08:24:03;;;;;;;40.30;37.20;;;;;;;;;;5033999;28;20416;-84
2021/08/30 08:26:30;;;;;;;36.23;33.27;;;;;;;;;;5033987;28;20410;-85
2021/08/30 08:28:57;;;;;;;36.43;33.80;;;;;;;;;;5034108;28;20448;-85
2021/08/30 08:31:25;;;;;;;37.10;34.30;;;;;;;;;;5034477;28;20411;-90
2021/08/30 08:33:52;;;;;;;37.83;35.20;;;;;;;;;;5034168;28;20503;-88
2021/08/30 08:36:21;;;;;;;38.93;36.20;;;;;;;;;;5034306;28;20457;-93
2021/08/30 08:38:49;;;;;;;37.50;34.87;;;;;;;;;;5033742;28;20591;-84
2021/08/30 08:41:17;;;;;;;36.70;34.10;;;;;;;;;;5034136;28;20451;-86
2021/08/30 08:43:44;;;;;;;34.93;32.43;;;;;;;;;;5034272;28;20458;-86
2021/08/30 08:46:11;;;;;;;35.27;32.87;;;;;;;;;;5043158;28;20437;-84
2021/08/30 08:48:39;;;;;;;34.57;32.10;;;;;;;;;;5053881;28;20449;-84
2021/08/30 08:51:06;;;;;;;35.00;32.67;;;;;;;;;;5053748;28;20406;-83
2021/08/30 08:53:35;;;;;;;35.00;32.50;;;;;;;;;;5053992;28;20916;-81
2021/08/30 08:56:02;;;;;;;36.27;33.43;;;;;;;;;;5053635;28;20438;-82
2021/08/30 08:58:30;;;;;;;36.10;33.60;;;;;;;;;;5053770;28;20486;-90
2021/08/30 09:01:01;;;;;;;34.60;32.30;;;;;;;;;;5056158;28;20473;-89
2021/08/30 09:03:29;;;;;;;34.50;32.20;;;;;;;;;;5057953;28;20493;-91
2021/08/30 09:06:03;;;;;;;35.63;33.23;;;;;;;;;;5058047;28;20439;-85
2021/08/30 09:08:32;;;;;;;33.83;31.37;;;;;;;;;;5057217;28;20995;-85
2021/08/30 09:11:01;;;;;;;35.03;32.43;;;;;;;;;;5057481;28;20450;-85
2021/08/30 09:13:29;;;;;;;35.43;32.97;;;;;;;;;;5057334;28;20439;-85
2021/08/30 09:15:57;;;;;;;33.67;31.37;;;;;;;;;;5057449;28;20441;-85
2021/08/30 09:18:28;;;;;;;35.50;32.27;;;;;;;;;;5057244;28;20474;-85
2021/08/30 09:20:56;;;;;;;36.97;34.37;;;;;;;;;;5057773;28;20439;-85
2021/08/30 09:23:23;;;;;;;34.97;32.73;;;;;;;;;;5058129;28;20440;-85
2021/08/30 09:25:59;;;;;;;34.90;32.50;;;;;;;;;;5057239;28;20969;-85
2021/08/30 09:28:33;;;;;;;35.97;33.57;;;;;;;;;;5057305;28;20963;-85
2021/08/30 09:31:00;;;;;;;34.03;31.93;;;;;;;;;;5057193;28;20939;-85
2021/08/30 09:33:28;;;;;;;33.77;31.50;;;;;;;;;;5046736;28;20496;-84
2021/08/30 09:35:59;;;;;;;34.60;31.93;;;;;;;;;;5037198;28;20429;-85
2021/08/30 09:38:28;;;;;;;33.53;31.43;;;;;;;;;;5037581;28;20463;-85
2021/08/30 09:41:05;;;;;;;33.30;31.20;;;;;;;;;;5037447;28;20418;-85
2021/08/30 09:43:34;;;;;;;33.43;31.30;;;;;;;;;;5037419;28;20509;-84
2021/08/30 09:46:03;;;;;;;34.23;32.13;;;;;;;;;;5037225;28;20469;-84
2021/08/30 09:48:33;;;;;;;33.37;30.90;;;;;;;;;;5038442;28;20448;-84
2021/08/30 09:51:01;;;;;;;35.77;33.07;;;;;;;;;;5038183;28;20432;-87
2021/08/30 09:53:29;;;;;;;35.63;33.13;;;;;;;;;;5037993;28;20574;-85
2021/08/30 09:55:58;;;;;;;35.40;33.20;;;;;;;;;;5039433;28;20415;-85
2021/08/30 09:58:27;;;;;;;33.53;31.20;;;;;;;;;;5020993;28;20440;-85
2021/08/30 10:00:57;;;;;;;34.10;32.00;;;;;;;;;;5037993;28;20464;-85
2021/08/30 10:03:28;;;;;;;33.80;31.70;;;;;;;;;;5037090;28;20441;-85
2021/08/30 10:05:56;;;;;;;34.07;31.87;;;;;;;;;;5036575;28;20435;-85
2021/08/30 10:08:24;;;;;;;34.23;31.93;;;;;;;;;;5036651;28;20434;-85
2021/08/30 10:10:51;;;;;;;33.33;31.23;;;;;;;;;;5036582;28;20523;-83
2021/08/30 10:13:19;;;;;;;33.83;31.63;;;;;;;;;;5035642;28;20513;-82
2021/08/30 10:15:49;;;;;;;34.33;31.80;;;;;;;;;;5036603;28;20445;-81
2021/08/30 10:18:20;;;;;;;34.63;32.37;;;;;;;;;;5036811;28;20430;-82
2021/08/30 10:20:50;;;;;;;33.13;31.10;;;;;;;;;;5037595;28;20772;-84
2021/08/30 10:23:18;;;;;;;35.77;33.47;;;;;;;;;;5036984;28;20444;-84
2021/08/30 10:25:56;;;;;;;32.87;30.67;;;;;;;;;;5018257;28;20857;-82
2021/08/30 10:28:23;;;;;;;33.73;31.30;;;;;;;;;;5036120;28;20438;-83
2021/08/30 10:30:55;;;;;;;33.60;31.40;;;;;;;;;;5035942;28;20445;-84
2021/08/30 10:33:25;;;;;;;33.37;31.17;;;;;;;;;;5036009;28;20478;-84
2021/08/30 10:35:52;;;;;;;31.77;29.50;;;;;;;;;;5035040;28;20430;-82
2021/08/30 10:38:21;;;;;;;33.00;30.70;;;;;;;;;;5035668;28;20797;-80
2021/08/30 10:40:50;;;;;;;32.83;30.80;;;;;;;;;;5035669;28;20485;-81
2021/08/30 10:43:18;;;;;;;32.33;30.23;;;;;;;;;;5035738;28;20447;-82
2021/08/30 10:45:48;;;;;;;34.70;32.43;;;;;;;;;;5036407;28;20840;-83
2021/08/30 10:48:17;;;;;;;32.93;30.70;;;;;;;;;;5035806;28;20443;-83
2021/08/30 10:50:47;;;;;;;31.20;29.20;;;;;;;;;;5035645;28;20434;-83
2021/08/30 10:53:18;;;;;;;31.93;29.93;;;;;;;;;;5035765;28;20433;-82
2021/08/30 10:55:47;;;;;;;31.90;29.77;;;;;;;;;;5035857;28;20456;-82
2021/08/30 10:58:16;;;;;;;31.57;29.67;;;;;;;;;;5035790;28;20462;-85
2021/08/30 11:00:44;;;;;;;32.77;30.67;;;;;;;;;;5035978;28;20512;-83
2021/08/30 11:03:11;;;;;;;30.80;28.70;;;;;;;;;;5035512;28;20453;-84
2021/08/30 11:05:40;;;;;;;31.17;29.17;;;;;;;;;;5039671;28;20481;-85
2021/08/30 11:08:09;;;;;;;32.03;30.13;;;;;;;;;;5044863;28;20439;-84
2021/08/30 11:10:37;;;;;;;32.30;30.20;;;;;;;;;;5036472;28;20429;-84
2021/08/30 11:13:04;;;;;;;29.87;28.17;;;;;;;;;;5035450;28;20441;-83
2021/08/30 11:15:33;;;;;;;30.80;28.80;;;;;;;;;;5034790;28;20461;-83
2021/08/30 11:18:03;;;;;;;31.03;29.07;;;;;;;;;;5035598;28;20801;-86
2021/08/30 11:20:30;;;;;;;31.20;29.30;;;;;;;;;;5035222;28;20583;-83
2021/08/30 11:22:58;;;;;;;32.40;30.10;;;;;;;;;;5034980;28;20443;-82
2021/08/30 11:25:34;;;;;;;30.97;28.87;;;;;;;;;;5035242;28;20417;-83
2021/08/30 11:28:02;;;;;;;30.87;29.03;;;;;;;;;;5034799;28;20441;-83
2021/08/30 11:30:29;;;;;;;30.07;28.03;;;;;;;;;;5035056;28;20430;-85
2021/08/30 11:32:56;;;;;;;30.90;28.90;;;;;;;;;;5041212;28;20489;-80
2021/08/30 11:35:24;;;;;;;31.13;29.03;;;;;;;;;;5054940;28;20918;-85
2021/08/30 11:37:57;;;;;;;29.73;27.73;;;;;;;;;;5054844;28;20428;-83
2021/08/30 11:40:24;;;;;;;30.10;28.10;;;;;;;;;;5054752;28;20859;-88
2021/08/30 11:42:53;;;;;;;28.53;26.93;;;;;;;;;;5054907;28;20427;-86
2021/08/30 11:45:24;;;;;;;30.83;28.53;;;;;;;;;;5053034;28;20453;-86
2021/08/30 11:47:52;;;;;;;29.27;27.30;;;;;;;;;;5035122;28;20454;-85
2021/08/30 11:50:22;;;;;;;28.13;26.23;;;;;;;;;;5034925;28;20465;-90
2021/08/30 11:52:49;;;;;;;30.63;28.40;;;;;;;;;;5035189;28;20940;-89
2021/08/30 11:55:21;;;;;;;29.00;27.20;;;;;;;;;;5034702;28;20954;-85
2021/08/30 11:57:49;;;;;;;28.67;26.73;;;;;;;;;;5035174;28;20449;-88
2021/08/30 12:00:21;;;;;;;28.70;26.90;;;;;;;;;;5034729;28;20486;-84
2021/08/30 12:02:49;;;;;;;28.43;26.70;;;;;;;;;;5034564;28;20454;-81
2021/08/30 12:05:16;;;;;;;27.70;26.00;;;;;;;;;;5034732;28;20486;-87
2021/08/30 12:07:44;;;;;;;27.30;25.70;;;;;;;;;;5034862;28;20438;-83
2021/08/30 12:10:12;;;;;;;27.63;25.90;;;;;;;;;;5034264;28;20903;-81
2021/08/30 12:12:53;;;;;;;28.20;26.40;;;;;;;;;;5033948;28;20598;-82
2021/08/30 12:15:22;;;;;;;28.10;26.40;;;;;;;;;;5035815;28;20828;-82
2021/08/30 12:17:51;;;;;;;27.43;25.83;;;;;;;;;;5054251;28;20445;-83
2021/08/30 12:20:19;;;;;;;28.20;26.53;;;;;;;;;;5053761;28;20459;-83
2021/08/30 12:22:48;;;;;;;28.50;26.57;;;;;;;;;;5060974;28;20419;-83
2021/08/30 12:25:18;;;;;;;28.23;26.47;;;;;;;;;;5062968;28;20434;-83
2021/08/30 12:27:47;;;;;;;28.20;26.50;;;;;;;;;;5058950;28;20436;-83
2021/08/30 12:30:16;;;;;;;27.53;25.93;;;;;;;;;;5056691;28;20984;-82
2021/08/30 12:32:55;;;;;;;28.23;26.63;;;;;;;;;;5051537;28;20471;-83
2021/08/30 12:35:25;;;;;;;27.50;25.70;;;;;;;;;;5034957;28;20844;-82
2021/08/30 12:37:53;;;;;;;26.83;25.20;;;;;;;;;;5035351;28;20948;-83
2021/08/30 12:40:21;;;;;;;26.70;25.10;;;;;;;;;;5037175;28;20558;-84
2021/08/30 12:42:48;;;;;;;26.30;24.60;;;;;;;;;;5035046;28;20510;-84
2021/08/30 12:45:17;;;;;;;27.33;25.67;;;;;;;;;;5037390;28;20473;-84
2021/08/30 12:47:44;;;;;;;26.70;25.00;;;;;;;;;;5040096;28;20446;-83
2021/08/30 12:50:13;;;;;;;26.17;24.67;;;;;;;;;;5040183;28;20442;-91
2021/08/30 12:52:42;;;;;;;27.93;26.33;;;;;;;;;;5043973;28;20446;-89
2021/08/30 12:55:11;;;;;;;27.73;26.13;;;;;;;;;;5042329;28;20917;-87
2021/08/30 12:57:40;;;;;;;27.80;26.13;;;;;;;;;;5040163;28;20420;-90
2021/08/30 13:00:10;;;;;;;26.23;24.73;;;;;;;;;;5038450;28;20805;-85
2021/08/30 13:02:38;;;;;;;26.20;24.63;;;;;;;;;;5039108;28;20450;-88
2021/08/30 13:05:05;;;;;;;25.13;23.73;;;;;;;;;;5039777;28;20494;-87
2021/08/30 13:07:36;;;;;;;25.10;23.50;;;;;;;;;;5045075;28;20437;-89
2021/08/30 13:10:04;;;;;;;26.47;24.67;;;;;;;;;;5043599;28;20458;-87
2021/08/30 13:12:33;;;;;;;24.97;23.50;;;;;;;;;;5022843;28;20449;-88
2021/08/30 13:15:00;;;;;;;27.20;25.50;;;;;;;;;;5036796;28;20474;-89
2021/08/30 13:17:28;;;;;;;26.53;24.93;;;;;;;;;;5017334;28;20424;-81
2021/08/30 13:19:56;;;;;;;28.07;26.37;;;;;;;;;;5017092;28;20525;-81
2021/08/30 13:22:24;;;;;;;27.47;25.53;;;;;;;;;;5034970;28;20433;-83
2021/08/30 13:24:53;;;;;;;27.27;25.40;;;;;;;;;;5034733;28;20444;-82
2021/08/30 13:27:21;;;;;;;26.30;24.37;;;;;;;;;;5034845;28;20422;-82
2021/08/30 13:29:49;;;;;;;26.17;24.57;;;;;;;;;;5033959;28;20792;-82
2021/08/30 13:32:16;;;;;;;25.90;24.20;;;;;;;;;;5034016;28;20936;-82
2021/08/30 13:34:44;;;;;;;24.80;23.30;;;;;;;;;;5033256;28;20438;-82
2021/08/30 13:37:12;;;;;;;24.23;22.73;;;;;;;;;;5033803;28;20458;-82
2021/08/30 13:39:39;;;;;;;25.20;23.70;;;;;;;;;;5034210;28;20475;-82
2021/08/30 13:42:08;;;;;;;24.93;23.43;;;;;;;;;;5035588;28;20521;-82
2021/08/30 13:44:37;;;;;;;23.87;22.40;;;;;;;;;;5038393;28;20446;-82
2021/08/30 13:47:04;;;;;;;25.33;23.80;;;;;;;;;;5036618;28;20434;-82
2021/08/30 13:49:32;;;;;;;25.20;23.50;;;;;;;;;;5038300;28;20771;-81
2021/08/30 13:51:59;;;;;;;25.43;23.93;;;;;;;;;;5038339;28;20448;-82
2021/08/30 13:54:27;;;;;;;25.07;23.67;;;;;;;;;;5037058;28;20445;-81
2021/08/30 13:56:54;;;;;;;26.40;24.70;;;;;;;;;;5037414;28;20954;-82
2021/08/30 13:59:23;;;;;;;26.00;24.40;;;;;;;;;;5037749;28;20444;-82
2021/08/30 14:01:52;;;;;;;24.80;23.07;;;;;;;;;;5038151;28;20514;-82
2021/08/30 14:04:19;;;;;;;27.83;25.67;;;;;;;;;;5037034;28;21019;-81
2021/08/30 14:06:47;;;;;;;25.47;23.97;;;;;;;;;;5039563;28;20439;-81
2021/08/30 14:09:15;;;;;;;26.53;24.73;;;;;;;;;;5023372;28;20431;-80
2021/08/30 14:11:42;;;;;;;26.37;24.63;;;;;;;;;;5051927;28;20454;-80
2021/08/30 14:14:10;;;;;;;25.60;23.97;;;;;;;;;;5038586;28;20408;-80
2021/08/30 14:16:40;;;;;;;24.83;23.33;;;;;;;;;;5039225;28;20898;-81
2021/08/30 14:19:08;;;;;;;24.93;23.30;;;;;;;;;;5039193;28;20465;-80
2021/08/30 14:21:35;;;;;;;25.17;23.57;;;;;;;;;;5038835;28;20493;-81
2021/08/30 14:24:02;;;;;;;26.23;24.53;;;;;;;;;;5037441;28;20444;-81
2021/08/30 14:26:30;;;;;;;26.17;24.47;;;;;;;;;;5036325;28;20437;-81
2021/08/30 14:28:57;;;;;;;24.27;22.73;;;;;;;;;;5036813;28;20458;-81
2021/08/30 14:31:25;;;;;;;25.50;24.00;;;;;;;;;;5036531;28;20449;-81